Latest Weather Observations for Mount Magnet Airport

IDW60801

Issued at 1:32 pm WST Saturday 1 August 2015 (issued every 30 minutes, with the page automatically refreshed every 10 minutes)

About weather observations | Map of weather stations | Latest weather observations for WA | Other Formats
Station Details ID: 007600 Name: MOUNT MAGNET AERO Lat: -28.12 Lon: 117.84 Height: 407.0 m
Data from the previous 72 hours. | See also: Recent months at Mount Magnet Airport
Date/Time
WST
Temp
°C
App
Temp
°C
Dew
Point
Rel
Hum
%
Delta-T
°C
Wind Press
QNH
hPa
Press
MSL
hPa
Rain
since 9 am
mm
Dir
 
Spd
km/h
Gust
km/h
Spd
kts
Gust
kts
01/01:30pm 16.7 13.3 9.1 61 4.0 SW 17 20 9 11 1019.1 1018.5 0.0
01/01:00pm 16.8 13.7 10.2 65 3.6 SSW 17 24 9 13 1019.2 1018.6 0.0
01/12:30pm 16.4 12.9 10.3 67 3.3 WSW 19 24 10 13 1019.5 1018.9 0.0
01/12:00pm 16.3 13.4 9.7 65 3.5 WSW 15 20 8 11 1019.8 1019.2 0.0
01/11:30am 15.4 12.7 10.4 72 2.7 WSW 15 20 8 11 1019.9 1019.3 0.0
01/11:00am 15.9 13.5 11.3 74 2.5 WSW 15 19 8 10 1019.9 1019.3 0.0
01/10:30am 15.3 12.4 11.1 76 2.3 WSW 17 22 9 12 1019.9 1019.3 0.0
01/10:00am 14.5 11.3 11.1 80 1.8 WSW 19 24 10 13 1019.9 1019.3 0.0
01/09:30am 13.4 10.0 11.1 86 1.2 WSW 20 26 11 14 1019.7 1019.1 0.0
01/09:00am 13.5 10.3 11.4 87 1.1 WSW 19 24 10 13 1019.2 1018.6 28.6
01/08:30am 13.9 11.1 11.2 84 1.5 W 17 22 9 12 1018.6 1018.1 28.6
01/08:00am 13.5 11.2 11.7 89 1.0 W 15 17 8 9 1018.2 1017.7 28.6
01/07:30am 12.8 10.8 11.5 92 0.7 W 13 17 7 9 1017.9 1017.6 28.6
01/07:00am 12.5 10.1 11.4 93 0.6 W 15 19 8 10 1017.6 1017.3 28.6
01/06:30am 12.7 10.0 11.6 93 0.6 W 17 20 9 11 1017.3 1017.0 28.6
01/06:00am 13.0 11.1 11.9 93 0.6 W 13 22 7 12 1016.8 1016.5 28.6
01/05:30am 12.6 11.0 11.5 93 0.6 WNW 11 13 6 7 1016.2 1016.0 28.6
01/05:00am 12.8 10.4 11.5 92 0.7 WNW 15 19 8 10 1016.1 1015.9 28.6
01/04:30am 12.8 10.5 11.7 93 0.6 WNW 15 20 8 11 1016.0 1015.7 28.6
01/04:00am 13.0 10.4 11.9 93 0.6 NW 17 20 9 11 1016.0 1015.7 28.6
01/03:30am 13.0 11.1 11.9 93 0.6 WNW 13 17 7 9 1016.2 1016.0 28.6
01/03:00am 13.3 11.1 12.0 92 0.7 NW 15 19 8 10 1015.8 1015.5 28.6
01/02:30am 13.4 11.6 12.1 92 0.7 NW 13 17 7 9 1016.0 1015.7 28.6
01/02:00am 13.5 12.1 12.1 91 0.8 NW 11 15 6 8 1016.2 1016.0 28.6
01/01:30am 13.8 11.6 12.2 90 0.9 NW 15 20 8 11 1016.2 1016.0 28.6
01/01:00am 14.2 12.2 12.6 90 0.9 WNW 15 19 8 10 1016.3 1016.1 28.6
01/12:30am 13.9 11.8 12.5 91 0.8 WNW 15 19 8 10 1016.3 1016.1 28.6
01/12:00am 14.1 12.4 13.6 97 0.3 WNW 15 22 8 12 1016.1 1015.9 28.6
 
Date/Time
WST
Temp
°C
App
Temp
°C
Dew
Point
Rel
Hum
%
Delta-T
°C
Wind Press
QNH
hPa
Press
MSL
hPa
Rain
since 9 am
mm
Dir
 
Spd
km/h
Gust
km/h
Spd
kts
Gust
kts
31/11:30pm 14.4 12.5 14.1 98 0.2 NW 17 22 9 12 1016.3 1016.1 28.6
31/11:00pm 14.3 13.1 14.0 98 0.2 WNW 13 19 7 10 1016.3 1016.1 28.6
31/10:30pm 15.1 14.2 14.9 99 0.1 NW 13 15 7 8 1016.2 1016.0 28.6
31/10:00pm 15.2 14.7 15.0 99 0.1 NNW 11 13 6 7 1015.9 1015.6 28.6
31/09:30pm 15.2 15.1 15.0 99 0.1 NW 9 9 5 5 1015.7 1015.4 28.6
31/09:00pm 15.2 15.5 15.0 99 0.1 WNW 7 9 4 5 1015.5 1015.2 28.6
31/08:30pm 15.3 15.3 15.1 99 0.1 WSW 9 11 5 6 1015.5 1015.2 28.6
31/08:00pm 15.6 15.7 15.4 99 0.1 WSW 9 11 5 6 1015.7 1015.4 28.2
31/07:30pm 15.7 14.3 15.5 99 0.1 SW 17 22 9 12 1015.5 1015.2 27.4
31/07:00pm 16.0 17.2 15.8 99 0.1 WSW 4 9 2 5 1015.0 1014.7 24.6
31/06:30pm 15.8 17.6 15.6 99 0.1 CALM 0 2 0 1 1014.9 1014.6 24.6
31/06:00pm 15.8 16.3 15.6 99 0.1 SW 7 9 4 5 1014.3 1014.0 24.6
31/05:30pm 15.8 14.4 15.6 99 0.1 SW 17 24 9 13 1014.5 1014.2 23.8
31/05:00pm 16.0 15.1 15.8 99 0.1 SW 15 20 8 11 1014.8 1014.5 22.2
31/04:30pm 15.5 14.0 15.2 98 0.2 WSW 17 22 9 12 1014.8 1014.5 18.4
31/04:06pm 15.0 10.2 14.5 97 0.3 W 33 50 18 27 1014.4 1014.1 15.8
31/04:00pm 14.2 5.8 13.4 95 0.5 W 50 93 27 50 1014.1 1013.8 14.4
31/03:57pm 13.8 4.4 12.7 93 0.6 W 54 93 29 50 1014.7 1014.4 10.0
31/03:55pm 13.5 4.2 11.9 90 0.9 W 52 93 28 50 1014.9 1014.6 8.2
31/03:54pm 14.2 5.9 12.6 90 0.9 WSW 48 93 26 50 1014.4 1014.1 5.0
31/03:52pm 17.3 11.8 14.8 85 1.5 WSW 37 87 20 47 1014.1 1013.8 0.8
31/03:50pm 18.9 14.3 13.5 71 3.1 WSW 30 69 16 37 1013.6 1013.3 0.0
31/03:30pm 23.5 20.1 12.5 50 6.4 WNW 22 30 12 16 1012.2 1011.9 0.0
31/03:00pm 24.2 18.5 11.2 44 7.4 NW 32 41 17 22 1012.4 1012.1 0.0
31/02:30pm 24.8 21.0 12.4 46 7.2 NW 24 39 13 21 1012.2 1011.9 0.0
31/02:00pm 24.6 20.8 12.5 46 7.1 NW 24 35 13 19 1012.4 1012.1 0.0
31/01:30pm 24.5 21.0 12.1 46 7.2 NW 22 28 12 15 1012.8 1012.5 0.0
31/01:00pm 24.2 19.7 11.5 45 7.3 NW 26 32 14 17 1013.3 1013.0 0.0
31/12:30pm 24.6 20.4 11.2 43 7.7 WNW 24 32 13 17 1014.0 1013.6 0.0
31/12:00pm 24.6 20.7 10.8 42 7.8 NW 22 30 12 16 1014.5 1014.2 0.0
31/11:30am 24.2 20.6 10.5 42 7.7 NW 20 28 11 15 1014.9 1014.6 0.0
31/11:00am 23.8 20.8 12.4 48 6.6 NW 20 26 11 14 1015.2 1014.9 0.0
31/10:30am 23.4 19.5 10.8 45 7.1 NW 22 30 12 16 1015.6 1015.3 0.0
31/10:00am 22.0 20.3 14.6 63 4.4 N 17 20 9 11 1015.7 1015.4 0.0
31/09:30am 20.0 18.9 14.4 70 3.3 N 13 17 7 9 1016.0 1015.7 0.0
31/09:00am 18.7 16.9 14.4 76 2.5 N 17 20 9 11 1015.8 1015.5 0.0
31/08:30am 17.3 16.0 13.8 80 2.0 NNE 13 15 7 8 1016.0 1015.7 0.0
31/08:00am 15.6 14.2 13.3 86 1.3 NNE 13 15 7 8 1015.9 1015.6 0.0
31/07:30am 14.7 14.1 13.4 92 0.7 NNE 9 13 5 7 1015.9 1015.6 0.0
31/07:00am 14.2 13.2 13.4 95 0.5 NNE 11 15 6 8 1015.9 1015.6 0.0
31/06:30am 14.0 13.6 13.1 94 0.5 NE 7 7 4 4 1016.0 1015.7 0.0
31/06:00am 14.4 14.1 13.4 94 0.6 NNE 7 9 4 5 1016.1 1015.9 0.0
31/05:30am 14.5 14.3 13.5 94 0.6 NNE 7 9 4 5 1016.0 1015.7 0.0
31/05:00am 14.7 15.8 13.4 92 0.7 CALM 0 0 0 0 1016.2 1016.0 0.0
31/04:30am 15.2 16.4 13.7 91 0.9 CALM 0 0 0 0 1016.4 1016.2 0.0
31/04:00am 16.0 16.1 14.0 88 1.2 SW 6 9 3 5 1016.4 1016.2 0.0
31/03:30am 16.7 14.8 14.2 85 1.5 SW 17 24 9 13 1017.0 1016.7 0.0
31/03:00am 17.5 16.2 13.6 78 2.2 N 13 17 7 9 1016.7 1016.4 0.0
31/02:30am 17.6 16.8 13.9 79 2.1 NNW 11 15 6 8 1017.1 1016.8 0.0
31/02:00am 17.8 16.6 14.1 79 2.2 N 13 13 7 7 1017.3 1017.0 0.0
31/01:30am 18.3 17.6 14.4 78 2.3 N 11 15 6 8 1017.7 1017.4 0.0
31/01:00am 18.5 17.9 14.6 78 2.3 N 11 13 6 7 1018.1 1017.8 0.0
31/12:30am 18.9 18.0 14.8 77 2.4 NNE 13 17 7 9 1018.3 1018.1 0.0
31/12:00am 19.1 18.3 15.0 77 2.4 NNE 13 17 7 9 1018.6 1018.4 0.0
 
Date/Time
WST
Temp
°C
App
Temp
°C
Dew
Point
Rel
Hum
%
Delta-T
°C
Wind Press
QNH
hPa
Press
MSL
hPa
Rain
since 9 am
mm
Dir
 
Spd
km/h
Gust
km/h
Spd
kts
Gust
kts
30/11:30pm 19.0 18.3 15.3 79 2.2 NNE 13 15 7 8 1019.1 1018.8 0.0
30/11:00pm 19.0 18.9 16.0 83 1.8 NNE 11 11 6 6 1019.6 1019.3 0.0
30/10:30pm 19.1 19.4 16.1 83 1.8 N 9 11 5 6 1019.8 1019.5 0.0
30/10:00pm 19.2 19.6 16.4 84 1.7 N 9 9 5 5 1020.0 1019.7 0.0
30/09:30pm 19.6 20.4 16.4 82 2.0 N 7 7 4 4 1020.1 1019.8 0.0
30/09:00pm 19.8 20.3 16.6 82 2.0 N 9 9 5 5 1020.2 1019.9 0.0
30/08:30pm 19.9 22.4 17.3 85 1.6 CALM 0 0 0 0 1020.3 1020.0 0.0
30/08:00pm 20.5 22.6 16.3 77 2.6 CALM 0 0 0 0 1020.0 1019.7 0.0
30/07:30pm 21.6 23.6 16.1 71 3.4 CALM 0 0 0 0 1020.1 1019.8 0.0
30/07:00pm 22.2 24.2 16.0 68 3.8 CALM 0 0 0 0 1020.2 1019.9 0.0
30/06:30pm 23.0 23.8 15.8 64 4.4 N 6 6 3 3 1020.1 1019.8 0.0
30/06:00pm 23.3 24.0 15.6 62 4.7 N 6 7 3 4 1020.0 1019.7 0.0
30/05:30pm 24.1 24.5 15.3 58 5.4 N 7 9 4 5 1019.8 1019.5 0.0
30/05:00pm 24.8 24.9 14.0 51 6.5 N 6 7 3 4 1019.7 1019.4 0.0
30/04:30pm 25.0 25.0 14.2 51 6.5 N 7 11 4 6 1019.8 1019.5 0.0
30/04:00pm 25.0 24.2 15.0 53 6.1 N 13 15 7 8 1019.8 1019.5 0.0
30/03:30pm 25.1 24.0 14.3 51 6.5 N 13 17 7 9 1019.7 1019.4 0.0
30/03:00pm 25.0 23.1 14.2 51 6.5 NNW 17 22 9 12 1019.7 1019.4 0.0
30/02:30pm 24.9 22.9 13.8 50 6.6 NNW 17 24 9 13 1019.9 1019.6 0.0
30/02:00pm 25.1 24.1 14.6 52 6.4 N 13 20 7 11 1020.1 1019.8 0.0
30/01:30pm 24.6 23.8 15.0 55 5.8 NNE 13 19 7 10 1020.4 1020.2 0.0
30/01:00pm 23.9 21.7 13.4 51 6.2 N 17 24 9 13 1020.8 1020.6 0.0
30/12:30pm 24.2 22.0 13.4 51 6.4 NNE 17 22 9 12 1021.1 1020.9 0.0
30/12:00pm 23.2 20.6 13.1 53 5.9 NNE 19 24 10 13 1021.4 1021.2 0.0
30/11:30am 22.7 20.6 13.7 56 5.3 NNE 17 20 9 11 1021.8 1021.5 0.0
30/11:00am 21.8 19.7 13.7 60 4.8 NNE 17 20 9 11 1022.1 1021.8 0.0
30/10:30am 20.9 19.6 14.8 68 3.6 NNE 15 19 8 10 1022.4 1022.1 0.0
30/10:00am 19.8 19.0 15.2 75 2.7 NNE 13 17 7 9 1022.6 1022.4 0.0
30/09:30am 18.4 17.0 14.5 78 2.3 NNE 15 20 8 11 1022.9 1022.7 0.0
30/09:00am 17.5 16.2 14.8 84 1.6 N 15 20 8 11 1022.7 1022.5 23.0
30/08:30am 16.5 15.9 14.7 89 1.1 NNE 11 17 6 9 1022.6 1022.4 23.0
30/08:00am 15.6 15.0 14.5 93 0.6 NNE 11 13 6 7 1022.5 1022.3 23.0
30/07:30am 15.1 14.0 14.3 95 0.5 NNE 13 15 7 8 1022.2 1021.9 23.0
30/07:00am 14.9 14.5 14.1 95 0.5 NNE 9 11 5 6 1021.9 1021.6 23.0
30/06:30am 15.0 13.8 14.0 94 0.6 NNE 13 15 7 8 1021.8 1021.5 23.0
30/06:00am 15.2 15.2 14.1 93 0.6 NNE 7 11 4 6 1021.4 1021.2 23.0
30/05:30am 15.2 14.8 14.1 93 0.6 NNE 9 13 5 7 1021.1 1020.9 23.0
30/05:00am 15.3 14.9 14.2 93 0.6 NE 9 13 5 7 1021.0 1020.8 23.0
30/04:30am 15.6 15.9 14.6 94 0.6 SSE 6 7 3 4 1021.5 1021.3 23.0
30/04:00am 15.9 15.4 14.8 93 0.6 NNE 11 15 6 8 1021.5 1021.3 23.0
30/03:30am 15.8 14.0 14.5 92 0.8 NNE 17 22 9 12 1021.5 1021.3 23.0
30/03:00am 15.5 13.6 14.2 92 0.7 NNE 17 20 9 11 1021.9 1021.6 23.0
30/02:30am 15.3 15.0 14.3 94 0.6 NNE 9 13 5 7 1022.2 1021.9 23.0
30/02:00am 15.4 15.6 14.3 93 0.6 WSW 6 7 3 4 1022.8 1022.6 23.0
30/01:30am 15.4 15.1 14.3 93 0.6 N 9 11 5 6 1022.6 1022.4 22.8
30/01:00am 15.3 15.5 14.2 93 0.6 NNE 6 7 3 4 1022.9 1022.7 22.8
30/12:30am 15.4 14.6 14.1 92 0.7 N 11 15 6 8 1022.8 1022.6 22.8
30/12:00am 15.7 14.9 14.1 90 0.9 NNW 11 13 6 7 1023.1 1022.9 22.8
 
Date/Time
WST
Temp
°C
App
Temp
°C
Dew
Point
Rel
Hum
%
Delta-T
°C
Wind Press
QNH
hPa
Press
MSL
hPa
Rain
since 9 am
mm
Dir
 
Spd
km/h
Gust
km/h
Spd
kts
Gust
kts
29/11:30pm 15.8 14.6 14.0 89 1.0 NW 13 17 7 9 1023.4 1023.2 22.8
29/11:00pm 15.8 14.7 14.2 90 0.9 NW 13 17 7 9 1023.4 1023.2 22.8
29/10:30pm 16.0 15.8 14.7 92 0.8 NNW 9 11 5 6 1022.9 1022.7 22.8
29/10:00pm 15.7 15.4 14.4 92 0.8 NNE 9 11 5 6 1023.0 1022.8 22.8
29/09:30pm 15.8 16.0 14.2 90 0.9 SSE 6 7 3 4 1023.3 1023.1 22.8
29/09:00pm 15.9 14.0 14.3 90 0.9 WSW 17 24 9 13 1023.7 1023.5 22.6
29/08:38pm 16.9 14.5 14.5 86 1.4 SW 20 44 11 24 1023.1 1022.9 21.0
29/08:30pm 18.2 19.9 17.2 94 0.6 SSW 4 11 2 6 1022.6 1022.4 20.2
29/08:00pm 18.1 18.8 17.1 94 0.6 NW 9 13 5 7 1022.2 1021.9 19.8
29/07:30pm 18.1 18.1 17.3 95 0.5 NNW 13 17 7 9 1022.3 1022.0 19.4
29/07:00pm 18.1 17.0 17.3 95 0.5 N 19 22 10 12 1021.5 1021.3 18.4
29/06:30pm 18.0 17.3 17.4 96 0.4 NNW 17 22 9 12 1021.2 1021.0 16.8
29/06:00pm 18.1 18.5 17.3 95 0.5 NNW 11 13 6 7 1020.6 1020.4 12.8
29/05:30pm 18.3 18.8 17.5 95 0.5 WNW 11 17 6 9 1020.6 1020.4 9.6
29/05:00pm 18.3 18.0 17.3 94 0.6 W 15 19 8 10 1020.5 1020.3 7.8
29/04:30pm 18.5 16.8 17.3 93 0.7 SW 22 35 12 19 1020.3 1020.0 2.2
29/04:00pm 19.1 18.2 17.8 92 0.8 WSW 19 24 10 13 1020.3 1020.0 1.2
29/03:30pm 19.2 18.5 18.2 94 0.6 WSW 19 30 10 16 1020.5 1020.3 1.0
29/03:00pm 20.8 20.1 17.4 81 2.1 W 17 22 9 12 1020.2 1019.9 0.2
29/02:30pm 22.5 20.8 16.3 68 3.8 NW 20 26 11 14 1019.8 1019.5 0.0
29/02:00pm 22.8 21.2 16.4 67 4.0 WNW 20 28 11 15 1019.8 1019.5 0.0

Other Formats:

Comma delimited format used in spreadsheet applications
http://www.bom.gov.au/fwo/IDW60801/IDW60801.94429.axf

JavaScript Object Notation format (JSON) in row-major order
http://www.bom.gov.au/fwo/IDW60801/IDW60801.94429.json